Time;durP1;ratioP1;P1;durP2;ratioP2;P2;SDS_P1;SDS_P2;PMS_P1;PMS_P2;Temp;Humidity;BMP_temperature;BMP_pressure;BME280_temperature;BME280_humidity;BME280_pressure;Samples;Min_cycle;Max_cycle;Signal;HPM_P1;HPM_P2
2021/09/08 00:00:24;;;;;;;23.27;15.40;;;16.10;94.90;;;;;;4995943;28;20046;-58
2021/09/08 00:02:50;;;;;;;22.23;15.25;;;16.10;95.00;;;;;;4998990;28;20379;-59
2021/09/08 00:05:15;;;;;;;22.25;15.10;;;16.10;95.10;;;;;;4997875;28;20042;-59
2021/09/08 00:07:41;;;;;;;21.60;15.65;;;16.00;95.00;;;;;;4998898;28;20030;-59
2021/09/08 00:10:08;;;;;;;23.70;16.15;;;16.00;95.20;;;;;;4995759;28;20089;-58
2021/09/08 00:12:35;;;;;;;23.05;15.43;;;16.00;95.30;;;;;;4995397;28;20038;-59
2021/09/08 00:15:01;;;;;;;26.98;17.20;;;15.90;95.20;;;;;;4996096;28;20409;-59
2021/09/08 00:17:26;;;;;;;23.75;15.95;;;15.90;95.20;;;;;;4995795;28;20487;-59
2021/09/08 00:19:52;;;;;;;25.60;17.08;;;15.90;95.20;;;;;;5007496;28;20049;-59
2021/09/08 00:22:17;;;;;;;25.27;16.02;;;15.90;95.10;;;;;;5010715;28;20508;-59
2021/09/08 00:24:43;;;;;;;23.45;17.58;;;15.90;95.10;;;;;;5010390;28;20067;-59
2021/09/08 00:27:08;;;;;;;24.52;16.80;;;15.90;95.10;;;;;;4997298;28;20091;-59
2021/09/08 00:29:34;;;;;;;26.75;17.70;;;15.80;95.10;;;;;;5009663;28;20041;-59
2021/09/08 00:32:03;;;;;;;25.20;16.67;;;15.80;95.10;;;;;;5010376;28;20042;-59
2021/09/08 00:34:29;;;;;;;26.00;18.08;;;15.80;95.00;;;;;;4996871;28;20293;-59
2021/09/08 00:36:54;;;;;;;25.48;16.95;;;15.80;95.10;;;;;;5008418;28;20041;-59
2021/09/08 00:39:20;;;;;;;24.25;16.83;;;15.90;94.90;;;;;;5001245;28;20038;-59
2021/09/08 00:41:46;;;;;;;23.88;17.23;;;15.90;94.90;;;;;;4997352;28;20479;-59
2021/09/08 00:44:14;;;;;;;26.48;18.50;;;15.90;94.90;;;;;;4997857;28;20038;-59
2021/09/08 00:46:41;;;;;;;23.98;17.27;;;15.90;94.90;;;;;;4993633;28;20034;-58
2021/09/08 00:49:07;;;;;;;24.67;18.35;;;15.90;94.90;;;;;;4992262;28;20049;-59
2021/09/08 00:51:34;;;;;;;26.00;17.95;;;15.90;95.00;;;;;;4992107;28;20037;-59
2021/09/08 00:54:00;;;;;;;26.33;18.52;;;15.80;94.90;;;;;;4991853;28;20392;-56
2021/09/08 00:56:28;;;;;;;27.27;18.08;;;15.90;94.80;;;;;;4974959;28;20049;-59
2021/09/08 00:58:54;;;;;;;25.73;18.23;;;15.90;94.70;;;;;;4991778;28;20042;-58
2021/09/08 01:01:20;;;;;;;25.60;17.90;;;15.80;94.70;;;;;;4992970;28;20089;-59
2021/09/08 01:03:49;;;;;;;26.88;18.15;;;15.80;94.80;;;;;;4991740;28;20042;-59
2021/09/08 01:06:15;;;;;;;27.80;17.98;;;15.80;94.80;;;;;;4991335;28;20470;-59
2021/09/08 01:08:42;;;;;;;25.63;18.90;;;15.80;94.90;;;;;;4996492;28;20036;-59
2021/09/08 01:11:08;;;;;;;27.02;18.75;;;15.70;95.00;;;;;;5023930;28;20091;-59
2021/09/08 01:13:33;;;;;;;28.90;19.08;;;15.70;95.00;;;;;;5017532;28;20038;-59
2021/09/08 01:16:01;;;;;;;29.00;19.55;;;15.70;95.10;;;;;;5001927;28;20048;-59
2021/09/08 01:18:28;;;;;;;28.65;18.75;;;15.60;95.20;;;;;;5012982;28;20037;-59
2021/09/08 01:20:54;;;;;;;26.85;18.30;;;15.60;95.40;;;;;;5014625;28;20471;-59
2021/09/08 01:23:20;;;;;;;27.75;19.27;;;15.50;95.50;;;;;;5027826;28;20214;-59
2021/09/08 01:25:46;;;;;;;27.83;18.90;;;15.50;95.50;;;;;;5014354;28;20091;-59
2021/09/08 01:28:12;;;;;;;26.50;19.05;;;15.50;95.50;;;;;;5003603;28;20422;-59
2021/09/08 01:30:41;;;;;;;28.13;19.67;;;15.40;95.70;;;;;;5011863;28;20038;-59
2021/09/08 01:33:09;;;;;;;27.67;18.98;;;15.40;95.80;;;;;;5012545;28;20042;-60
2021/09/08 01:35:34;;;;;;;29.38;19.83;;;15.30;95.90;;;;;;4997321;28;20108;-59
2021/09/08 01:38:00;;;;;;;27.70;19.35;;;15.30;95.90;;;;;;5001120;28;20049;-57
2021/09/08 01:40:26;;;;;;;28.10;19.88;;;15.20;95.90;;;;;;5000393;28;20042;-57
2021/09/08 01:42:51;;;;;;;31.27;18.83;;;15.20;96.00;;;;;;4998670;28;20034;-58
2021/09/08 01:45:17;;;;;;;27.73;19.13;;;15.20;96.10;;;;;;5009137;28;20034;-58
2021/09/08 01:47:43;;;;;;;26.95;18.65;;;15.20;96.30;;;;;;5000208;28;20045;-58
2021/09/08 01:50:10;;;;;;;29.38;19.20;;;15.20;96.30;;;;;;5011428;28;20087;-58
2021/09/08 01:52:37;;;;;;;32.75;20.02;;;15.10;96.20;;;;;;5009533;28;20073;-58
2021/09/08 01:55:04;;;;;;;27.95;18.98;;;15.20;96.20;;;;;;4994048;28;20173;-57
2021/09/08 01:57:29;;;;;;;26.98;18.77;;;15.20;96.40;;;;;;5005817;28;20041;-58
2021/09/08 01:59:55;;;;;;;30.02;19.73;;;15.20;96.10;;;;;;5009390;28;20038;-57
2021/09/08 02:02:20;;;;;;;28.65;19.02;;;15.20;96.00;;;;;;5005658;28;20037;-58
2021/09/08 02:04:47;;;;;;;29.13;19.45;;;15.20;95.80;;;;;;4990458;28;20043;-57
2021/09/08 02:07:12;;;;;;;28.50;19.95;;;15.30;95.80;;;;;;5011065;28;20050;-58
2021/09/08 02:09:38;;;;;;;28.27;19.98;;;15.40;95.50;;;;;;5008574;28;20042;-57
2021/09/08 02:12:04;;;;;;;28.77;18.92;;;15.40;95.20;;;;;;5000084;28;20073;-58
2021/09/08 02:14:29;;;;;;;27.45;19.75;;;15.40;95.20;;;;;;5012463;28;20037;-57
2021/09/08 02:16:55;;;;;;;30.20;19.92;;;15.30;95.20;;;;;;5008240;28;20498;-57
2021/09/08 02:19:20;;;;;;;27.67;18.48;;;15.40;95.30;;;;;;4992005;28;20092;-58
2021/09/08 02:21:46;;;;;;;27.48;18.60;;;15.30;95.30;;;;;;5004044;28;20038;-58
2021/09/08 02:24:11;;;;;;;28.77;19.45;;;15.30;95.30;;;;;;5026379;28;20042;-57
2021/09/08 02:26:37;;;;;;;25.63;18.88;;;15.30;95.30;;;;;;5012718;28;20443;-58
2021/09/08 02:29:02;;;;;;;28.10;19.35;;;15.30;95.30;;;;;;5008017;28;20458;-58
2021/09/08 02:31:28;;;;;;;27.80;19.27;;;15.30;95.40;;;;;;5006161;28;20048;-58
2021/09/08 02:33:55;;;;;;;28.38;19.42;;;15.20;95.50;;;;;;5011028;28;20049;-58
2021/09/08 02:36:22;;;;;;;26.90;19.05;;;15.20;95.40;;;;;;5001074;28;20165;-58
2021/09/08 02:38:48;;;;;;;28.27;19.95;;;15.20;95.50;;;;;;4994568;28;20050;-58
2021/09/08 02:41:14;;;;;;;28.45;19.38;;;15.20;95.50;;;;;;5012486;28;20046;-58
2021/09/08 02:43:39;;;;;;;29.27;19.98;;;15.20;95.50;;;;;;5012777;28;20044;-58
2021/09/08 02:46:06;;;;;;;28.65;19.80;;;15.10;95.80;;;;;;5007856;28;20038;-58
2021/09/08 02:48:32;;;;;;;27.35;18.80;;;15.00;95.70;;;;;;4994456;28;20046;-58
2021/09/08 02:50:59;;;;;;;27.05;19.60;;;15.10;96.00;;;;;;5004373;28;20057;-58
2021/09/08 02:53:24;;;;;;;29.75;19.17;;;15.10;95.80;;;;;;4997663;28;20533;-58
2021/09/08 02:55:50;;;;;;;27.80;19.65;;;15.10;95.70;;;;;;5002418;28;20037;-59
2021/09/08 02:58:15;;;;;;;31.85;19.95;;;15.10;95.60;;;;;;5003985;28;20072;-58
2021/09/08 03:00:42;;;;;;;26.98;19.30;;;15.10;95.60;;;;;;5012216;28;20042;-58
2021/09/08 03:03:07;;;;;;;31.65;19.67;;;15.10;95.60;;;;;;5012655;28;20047;-58
2021/09/08 03:05:33;;;;;;;29.60;20.10;;;15.10;95.60;;;;;;5012042;28;20042;-59
2021/09/08 03:07:59;;;;;;;27.88;19.40;;;15.10;95.50;;;;;;5011154;28;20038;-58
2021/09/08 03:10:24;;;;;;;26.85;19.00;;;15.10;95.40;;;;;;5012578;28;20041;-58
2021/09/08 03:12:50;;;;;;;29.55;19.58;;;15.20;95.00;;;;;;5002941;28;20160;-59
2021/09/08 03:15:15;;;;;;;27.33;19.48;;;15.30;94.90;;;;;;4993801;28;20516;-58
2021/09/08 03:17:41;;;;;;;28.70;19.95;;;15.30;94.70;;;;;;5012183;28;20038;-58
2021/09/08 03:20:07;;;;;;;28.25;19.75;;;15.40;94.60;;;;;;5012067;28;20085;-58
2021/09/08 03:22:33;;;;;;;25.00;19.17;;;15.30;94.60;;;;;;5010165;28;20030;-57
2021/09/08 03:24:59;;;;;;;29.45;20.55;;;15.30;94.60;;;;;;5006861;28;20026;-57
2021/09/08 03:27:24;;;;;;;30.13;20.85;;;15.40;94.50;;;;;;5007313;28;20124;-58
2021/09/08 03:29:50;;;;;;;29.80;20.02;;;15.40;94.50;;;;;;5004902;28;20034;-58
2021/09/08 03:32:15;;;;;;;27.55;19.92;;;15.40;94.50;;;;;;5003650;28;20414;-59
2021/09/08 03:34:41;;;;;;;28.85;19.45;;;15.30;94.40;;;;;;5010322;28;20034;-59
2021/09/08 03:37:06;;;;;;;27.92;20.55;;;15.30;94.50;;;;;;5002336;28;20042;-59
2021/09/08 03:39:32;;;;;;;28.33;19.65;;;15.30;94.50;;;;;;5002890;28;20430;-59
2021/09/08 03:41:57;;;;;;;28.98;20.65;;;15.30;94.50;;;;;;5006382;28;20121;-58
2021/09/08 03:44:23;;;;;;;28.02;19.48;;;15.30;94.30;;;;;;5012680;28;20060;-59
2021/09/08 03:46:48;;;;;;;29.67;20.15;;;15.30;94.30;;;;;;4993488;28;20495;-59
2021/09/08 03:49:14;;;;;;;25.65;18.13;;;15.30;94.40;;;;;;5001572;28;20495;-59
2021/09/08 03:51:40;;;;;;;27.67;19.20;;;15.20;94.50;;;;;;5003094;28;20553;-59
2021/09/08 03:54:05;;;;;;;29.00;19.55;;;15.20;94.50;;;;;;5007946;28;20042;-59
2021/09/08 03:56:31;;;;;;;31.15;19.75;;;15.20;94.60;;;;;;5006779;28;20430;-59
2021/09/08 03:58:56;;;;;;;26.52;18.95;;;15.30;94.50;;;;;;5006302;28;20039;-58
2021/09/08 04:01:22;;;;;;;29.80;19.63;;;15.20;94.50;;;;;;5000169;28;20050;-57
2021/09/08 04:03:48;;;;;;;31.48;20.02;;;15.30;94.30;;;;;;5001324;28;20413;-58
2021/09/08 04:06:14;;;;;;;28.58;19.70;;;15.30;94.20;;;;;;5003811;28;20126;-58
2021/09/08 04:08:40;;;;;;;28.75;18.95;;;15.20;94.20;;;;;;5001331;28;20117;-59
2021/09/08 04:11:06;;;;;;;29.05;20.20;;;15.20;94.10;;;;;;5005253;28;20060;-59
2021/09/08 04:13:31;;;;;;;28.05;19.80;;;15.20;94.30;;;;;;5011523;28;20066;-59
2021/09/08 04:15:57;;;;;;;28.90;20.50;;;15.20;94.40;;;;;;5004124;28;20498;-58
2021/09/08 04:18:22;;;;;;;28.52;19.65;;;15.10;94.40;;;;;;5011317;28;20030;-59
2021/09/08 04:20:48;;;;;;;29.60;20.02;;;15.10;94.30;;;;;;5022316;28;20461;-58
2021/09/08 04:23:13;;;;;;;27.77;19.95;;;15.10;94.50;;;;;;5007893;28;20044;-58
2021/09/08 04:25:40;;;;;;;24.67;18.75;;;15.10;94.50;;;;;;5009822;28;20034;-59
2021/09/08 04:28:06;;;;;;;28.70;19.67;;;15.10;94.50;;;;;;5007799;28;20044;-59
2021/09/08 04:30:31;;;;;;;27.63;19.52;;;15.00;94.50;;;;;;5002465;28;20045;-58
2021/09/08 04:32:57;;;;;;;26.40;19.48;;;15.10;94.50;;;;;;5009753;28;20049;-58
2021/09/08 04:35:22;;;;;;;33.58;19.73;;;15.00;94.60;;;;;;4995775;28;20044;-58
2021/09/08 04:37:48;;;;;;;28.40;20.77;;;15.00;94.80;;;;;;5011052;28;20045;-58
2021/09/08 04:40:14;;;;;;;28.33;19.73;;;15.00;94.40;;;;;;5005063;28;20073;-58
2021/09/08 04:42:39;;;;;;;29.27;20.05;;;15.00;94.50;;;;;;5000978;28;20030;-58
2021/09/08 04:45:05;;;;;;;27.55;19.42;;;15.00;94.50;;;;;;5002489;28;20045;-57
2021/09/08 04:47:31;;;;;;;28.90;20.08;;;15.00;94.60;;;;;;5010712;28;20049;-59
2021/09/08 04:49:56;;;;;;;31.50;20.00;;;15.00;94.50;;;;;;4995463;28;20298;-59
2021/09/08 04:52:22;;;;;;;28.50;19.70;;;15.00;94.50;;;;;;5020686;28;20588;-59
2021/09/08 04:54:47;;;;;;;28.30;18.73;;;15.00;94.50;;;;;;5029605;28;20482;-58
2021/09/08 04:57:13;;;;;;;32.78;19.40;;;14.90;94.60;;;;;;5010055;28;20093;-60
2021/09/08 04:59:38;;;;;;;25.42;18.52;;;14.90;94.70;;;;;;4998098;28;20046;-57
2021/09/08 05:02:04;;;;;;;27.75;19.67;;;14.90;94.60;;;;;;4995524;28;20534;-57
2021/09/08 05:04:29;;;;;;;28.48;19.45;;;15.00;94.50;;;;;;4993007;28;20569;-57
2021/09/08 05:06:55;;;;;;;27.75;19.80;;;14.90;94.50;;;;;;5022194;28;20069;-57
2021/09/08 05:09:20;;;;;;;26.25;19.33;;;15.00;94.50;;;;;;4999879;28;20116;-58
2021/09/08 05:11:46;;;;;;;27.80;19.40;;;14.90;94.40;;;;;;5005002;28;20045;-57
2021/09/08 05:14:11;;;;;;;27.55;19.48;;;14.90;94.50;;;;;;4990606;28;20133;-58
2021/09/08 05:16:37;;;;;;;27.65;19.80;;;14.90;94.50;;;;;;5003736;28;20046;-57
2021/09/08 05:19:03;;;;;;;28.05;20.10;;;14.90;94.60;;;;;;4992785;28;20042;-58
2021/09/08 05:21:29;;;;;;;32.47;20.17;;;14.90;94.60;;;;;;4991622;28;20053;-58
2021/09/08 05:23:54;;;;;;;27.42;20.15;;;14.90;94.60;;;;;;4998058;28;20048;-58
2021/09/08 05:26:20;;;;;;;29.90;19.77;;;14.90;94.70;;;;;;5030021;28;20034;-58
2021/09/08 05:28:46;;;;;;;28.65;19.88;;;14.90;94.50;;;;;;5010018;28;20038;-58
2021/09/08 05:31:11;;;;;;;28.38;19.95;;;14.90;94.50;;;;;;5002745;28;20042;-58
2021/09/08 05:33:37;;;;;;;27.90;19.30;;;14.90;94.60;;;;;;4990988;28;20065;-58
2021/09/08 05:36:03;;;;;;;28.38;20.00;;;14.90;94.60;;;;;;5014797;28;20068;-58
2021/09/08 05:38:28;;;;;;;28.23;19.83;;;14.90;94.60;;;;;;4995402;28;20104;-58
2021/09/08 05:40:54;;;;;;;26.60;19.05;;;15.00;94.50;;;;;;4995515;28;20058;-58
2021/09/08 05:43:19;;;;;;;32.53;19.48;;;15.00;94.40;;;;;;5004169;28;20489;-58
2021/09/08 05:45:45;;;;;;;31.20;19.85;;;15.00;94.40;;;;;;4985697;28;20129;-58
2021/09/08 05:48:11;;;;;;;25.77;18.63;;;15.00;94.50;;;;;;4994203;28;20046;-58
2021/09/08 05:50:37;;;;;;;29.33;19.00;;;15.00;94.50;;;;;;5003136;28;20054;-59
2021/09/08 05:53:03;;;;;;;25.23;18.10;;;15.00;94.40;;;;;;5007451;28;20057;-57
2021/09/08 05:55:31;;;;;;;29.67;19.27;;;15.10;94.40;;;;;;5008124;28;20414;-58
2021/09/08 05:57:57;;;;;;;26.60;19.52;;;15.10;94.40;;;;;;5014074;28;20041;-57
2021/09/08 06:00:23;;;;;;;24.20;17.95;;;15.10;94.40;;;;;;5013412;28;20149;-58
2021/09/08 06:02:49;;;;;;;30.30;18.08;;;15.20;94.30;;;;;;5009421;28;20038;-58
2021/09/08 06:05:14;;;;;;;25.17;18.65;;;15.20;94.30;;;;;;5001211;28;20045;-59
2021/09/08 06:07:40;;;;;;;27.45;18.88;;;15.30;94.30;;;;;;4994451;28;20044;-58
2021/09/08 06:10:06;;;;;;;31.67;19.23;;;15.30;93.90;;;;;;4993046;28;20046;-57
2021/09/08 06:12:32;;;;;;;26.30;19.10;;;15.30;93.80;;;;;;4988017;28;20521;-58
2021/09/08 06:14:58;;;;;;;28.52;19.05;;;15.40;93.70;;;;;;5005932;28;20038;-58
2021/09/08 06:17:24;;;;;;;26.00;17.50;;;15.40;93.60;;;;;;5009672;28;20054;-58
2021/09/08 06:19:50;;;;;;;25.00;17.80;;;15.50;93.70;;;;;;5013632;28;20045;-58
2021/09/08 06:22:15;;;;;;;26.52;18.65;;;15.50;93.80;;;;;;5012800;28;20037;-59
2021/09/08 06:24:41;;;;;;;26.40;19.02;;;15.50;93.60;;;;;;5017194;28;20037;-59
2021/09/08 06:27:06;;;;;;;25.52;17.95;;;15.60;93.50;;;;;;5021610;28;20042;-58
2021/09/08 06:29:32;;;;;;;26.13;18.60;;;15.70;93.60;;;;;;5009357;28;20037;-58
2021/09/08 06:31:57;;;;;;;26.02;18.05;;;15.70;93.40;;;;;;5013049;28;20037;-58
2021/09/08 06:34:23;;;;;;;24.05;17.10;;;15.70;93.30;;;;;;5026644;28;20540;-58
2021/09/08 06:36:49;;;;;;;25.15;18.48;;;15.80;93.20;;;;;;5019433;28;20156;-58
2021/09/08 06:39:15;;;;;;;25.60;17.67;;;15.80;93.20;;;;;;5032877;28;20116;-58
2021/09/08 06:41:41;;;;;;;25.73;17.95;;;15.80;93.30;;;;;;4999461;28;20443;-59
2021/09/08 06:44:06;;;;;;;24.92;17.58;;;15.90;93.10;;;;;;5012137;28;20046;-58
2021/09/08 06:46:32;;;;;;;25.10;17.83;;;15.90;93.10;;;;;;5013013;28;20041;-59
2021/09/08 06:48:58;;;;;;;24.73;17.55;;;15.90;93.20;;;;;;5013223;28;20041;-57
2021/09/08 06:51:24;;;;;;;28.02;17.38;;;16.00;93.20;;;;;;4999909;28;20487;-58
2021/09/08 06:53:49;;;;;;;25.23;17.50;;;16.00;93.10;;;;;;4998520;28;20045;-59
2021/09/08 06:56:15;;;;;;;24.98;17.52;;;16.10;93.00;;;;;;5012768;28;20042;-58
2021/09/08 06:58:40;;;;;;;26.00;18.48;;;16.10;92.90;;;;;;5012195;28;20036;-58
2021/09/08 07:01:06;;;;;;;24.05;17.20;;;16.20;92.90;;;;;;5012779;28;20482;-57
2021/09/08 07:03:31;;;;;;;26.55;18.23;;;16.20;92.90;;;;;;5011152;28;20049;-58
2021/09/08 07:05:57;;;;;;;25.90;17.95;;;16.30;92.90;;;;;;4991608;28;20046;-59
2021/09/08 07:08:22;;;;;;;24.05;17.33;;;16.30;93.00;;;;;;4989741;28;20042;-58
2021/09/08 07:10:48;;;;;;;24.45;17.10;;;16.30;92.90;;;;;;5007066;28;20038;-58
2021/09/08 07:13:14;;;;;;;26.02;17.60;;;16.40;92.90;;;;;;4999687;28;20053;-58
2021/09/08 07:15:39;;;;;;;26.35;17.20;;;16.40;92.70;;;;;;5005153;28;20121;-58
2021/09/08 07:18:05;;;;;;;25.10;17.88;;;16.50;92.80;;;;;;5012875;28;20121;-59
2021/09/08 07:20:31;;;;;;;24.35;17.38;;;16.60;92.80;;;;;;4997124;28;20057;-58
2021/09/08 07:22:56;;;;;;;25.85;17.65;;;16.60;92.70;;;;;;5011618;28;20042;-58
2021/09/08 07:25:23;;;;;;;26.48;17.75;;;16.70;92.60;;;;;;5011786;28;20490;-58
2021/09/08 07:27:48;;;;;;;28.58;17.30;;;16.80;92.20;;;;;;5011979;28;20037;-58
2021/09/08 07:30:14;;;;;;;22.35;16.08;;;16.90;92.30;;;;;;5004042;28;20142;-59
2021/09/08 07:32:39;;;;;;;22.15;16.33;;;17.00;92.00;;;;;;5004928;28;20034;-58
2021/09/08 07:35:06;;;;;;;27.17;15.55;;;17.10;92.00;;;;;;5008921;28;20124;-59
2021/09/08 07:37:31;;;;;;;24.15;16.95;;;17.20;91.90;;;;;;5010067;28;20042;-59
2021/09/08 07:39:57;;;;;;;20.90;16.52;;;17.40;91.80;;;;;;5004480;28;20100;-58
2021/09/08 07:42:23;;;;;;;22.67;16.63;;;17.50;91.50;;;;;;5013418;28;20038;-59
2021/09/08 07:44:48;;;;;;;22.48;15.48;;;17.60;91.20;;;;;;4994651;28;20038;-59
2021/09/08 07:47:14;;;;;;;22.48;16.63;;;17.80;91.40;;;;;;4992148;28;20046;-59
2021/09/08 07:49:39;;;;;;;25.85;15.45;;;17.90;90.60;;;;;;4992963;28;20042;-58
2021/09/08 07:52:05;;;;;;;26.45;16.10;;;18.00;90.70;;;;;;4998777;28;20038;-59
2021/09/08 07:54:31;;;;;;;21.77;15.18;;;18.20;90.60;;;;;;4997211;28;20038;-58
2021/09/08 07:56:56;;;;;;;19.45;14.40;;;18.30;90.50;;;;;;5008501;28;20418;-59
2021/09/08 07:59:22;;;;;;;20.35;14.27;;;18.40;90.40;;;;;;5020409;28;20037;-59
2021/09/08 08:01:48;;;;;;;21.75;15.38;;;18.60;89.80;;;;;;5011853;28;20391;-59
2021/09/08 08:04:13;;;;;;;18.92;14.57;;;18.70;89.00;;;;;;5009867;28;20041;-58
2021/09/08 08:06:40;;;;;;;22.40;15.35;;;18.80;89.60;;;;;;5008351;28;20040;-59
2021/09/08 08:09:06;;;;;;;20.13;15.05;;;18.80;89.20;;;;;;5016638;28;20105;-58
2021/09/08 08:11:32;;;;;;;22.50;16.27;;;19.00;89.20;;;;;;5016068;28;20057;-58
2021/09/08 08:13:57;;;;;;;23.05;15.10;;;19.00;88.70;;;;;;5012196;28;20041;-59
2021/09/08 08:16:23;;;;;;;24.50;15.82;;;19.20;88.40;;;;;;5017312;28;20045;-59
2021/09/08 08:18:48;;;;;;;22.88;16.02;;;19.30;87.90;;;;;;5004006;28;20046;-59
2021/09/08 08:21:14;;;;;;;23.48;15.80;;;19.40;87.30;;;;;;5000013;28;20049;-59
2021/09/08 08:23:40;;;;;;;21.25;14.98;;;19.50;86.80;;;;;;4992273;28;20417;-59
2021/09/08 08:26:05;;;;;;;22.45;15.05;;;19.60;86.30;;;;;;5014191;28;20345;-58
2021/09/08 08:28:31;;;;;;;21.88;14.18;;;19.70;84.10;;;;;;5011934;28;20042;-59
2021/09/08 08:30:59;;;;;;;19.30;13.90;;;19.80;83.60;;;;;;4998466;28;20038;-59
2021/09/08 08:33:27;;;;;;;18.73;13.10;;;19.90;84.20;;;;;;4998276;28;20092;-58
2021/09/08 08:35:53;;;;;;;17.90;13.52;;;20.00;84.50;;;;;;4996045;28;20038;-59
2021/09/08 08:38:19;;;;;;;21.63;13.65;;;20.10;84.20;;;;;;5027311;28;20052;-59
2021/09/08 08:40:45;;;;;;;18.98;13.85;;;20.30;83.30;;;;;;5013439;28;20084;-59
2021/09/08 08:43:11;;;;;;;19.85;14.23;;;20.40;82.70;;;;;;5023954;28;20072;-58
2021/09/08 08:45:37;;;;;;;23.65;14.68;;;20.40;81.40;;;;;;5028470;28;20052;-58
2021/09/08 08:48:04;;;;;;;22.35;13.85;;;20.50;82.50;;;;;;5022265;28;20097;-59
2021/09/08 08:50:30;;;;;;;19.80;13.82;;;20.60;82.70;;;;;;5009341;28;20053;-59
2021/09/08 08:52:57;;;;;;;21.13;13.57;;;20.70;81.80;;;;;;5007965;28;20093;-59
2021/09/08 08:55:25;;;;;;;21.02;14.15;;;20.70;81.50;;;;;;4995986;28;20112;-59
2021/09/08 08:57:50;;;;;;;18.00;13.75;;;20.90;81.40;;;;;;4996845;28;20038;-59
2021/09/08 09:00:21;;;;;;;19.05;13.18;;;20.90;81.10;;;;;;5015142;28;20093;-59
2021/09/08 09:02:52;;;;;;;21.50;13.20;;;21.00;80.90;;;;;;5012405;28;20512;-59
2021/09/08 09:05:34;;;;;;;20.42;13.75;;;21.10;79.60;;;;;;5006526;28;20030;-59
2021/09/08 09:08:00;;;;;;;23.50;13.45;;;21.20;79.80;;;;;;5013741;28;20044;-59
2021/09/08 09:10:25;;;;;;;21.25;13.15;;;21.30;79.20;;;;;;5008011;28;20504;-58
2021/09/08 09:12:51;;;;;;;20.10;13.13;;;21.40;78.60;;;;;;5007205;28;20116;-57
2021/09/08 09:15:19;;;;;;;17.83;14.18;;;21.50;78.60;;;;;;5006607;28;20061;-58
2021/09/08 09:17:46;;;;;;;17.35;12.60;;;21.60;78.00;;;;;;5009168;28;20081;-59
2021/09/08 09:20:17;;;;;;;18.30;13.35;;;21.60;77.20;;;;;;4995243;28;20046;-58
2021/09/08 09:22:44;;;;;;;;;;;21.70;77.20;;;;;;4997999;28;20042;-59
2021/09/08 09:25:13;;;;;;;21.67;12.38;;;21.80;76.90;;;;;;5009876;28;20444;-59
2021/09/08 09:27:48;;;;;;;18.85;13.15;;;21.90;77.40;;;;;;5007364;28;20046;-59
2021/09/08 09:30:17;;;;;;;18.58;12.48;;;22.00;77.50;;;;;;5003301;28;20042;-59
2021/09/08 09:32:46;;;;;;;17.90;12.88;;;22.10;77.50;;;;;;5024456;28;20053;-59
2021/09/08 09:35:16;;;;;;;23.13;12.73;;;22.20;77.10;;;;;;5019243;28;20176;-58
2021/09/08 09:37:50;;;;;;;21.52;11.68;;;22.30;76.00;;;;;;5016745;28;20139;-58
2021/09/08 09:40:21;;;;;;;19.92;13.38;;;22.40;75.90;;;;;;5012739;28;20046;-59
2021/09/08 09:42:46;;;;;;;18.52;11.65;;;22.40;73.50;;;;;;5010996;28;20042;-59
2021/09/08 09:45:14;;;;;;;16.00;12.25;;;22.50;74.30;;;;;;5013946;28;20034;-59
2021/09/08 09:47:44;;;;;;;17.23;11.93;;;22.50;74.30;;;;;;4994745;28;20041;-59
2021/09/08 09:50:20;;;;;;;16.17;11.30;;;22.60;72.40;;;;;;5008020;28;20092;-59
2021/09/08 09:52:54;;;;;;;16.33;11.15;;;22.60;73.40;;;;;;5006441;28;20050;-58
2021/09/08 09:55:21;;;;;;;17.30;10.80;;;22.70;74.10;;;;;;5019692;28;20494;-59
2021/09/08 09:57:47;;;;;;;17.45;11.18;;;22.80;71.50;;;;;;5006215;28;20042;-59
2021/09/08 10:00:14;;;;;;;15.93;11.00;;;22.90;70.70;;;;;;4997242;28;20046;-59
2021/09/08 10:02:41;;;;;;;16.42;10.68;;;23.00;70.00;;;;;;5012369;28;20069;-59
2021/09/08 10:05:08;;;;;;;18.55;10.70;;;23.00;70.00;;;;;;5021930;28;20048;-59
2021/09/08 10:07:35;;;;;;;15.43;10.57;;;23.10;70.80;;;;;;4993875;28;20414;-59
2021/09/08 10:10:27;;;;;;;14.73;10.18;;;23.10;70.40;;;;;;5006148;28;20053;-58
2021/09/08 10:12:56;;;;;;;15.35;10.15;;;23.20;70.60;;;;;;5011839;28;20530;-58
2021/09/08 10:15:22;;;;;;;15.68;10.27;;;23.20;70.70;;;;;;5011959;28;20042;-59
2021/09/08 10:17:49;;;;;;;13.10;9.55;;;23.30;71.10;;;;;;5010522;28;20486;-59
2021/09/08 10:20:25;;;;;;;15.38;10.57;;;23.30;71.30;;;;;;4997780;28;20060;-58
2021/09/08 10:22:51;;;;;;;15.35;10.50;;;23.50;70.20;;;;;;5009496;28;20042;-58
2021/09/08 10:25:19;;;;;;;13.60;9.90;;;23.50;69.40;;;;;;5024278;28;20449;-59
2021/09/08 10:27:45;;;;;;;14.25;10.38;;;23.60;69.20;;;;;;5029079;28;20052;-59
2021/09/08 10:30:12;;;;;;;15.68;10.13;;;23.70;67.80;;;;;;5010843;28;20300;-59
2021/09/08 10:32:38;;;;;;;17.02;10.32;;;23.70;69.10;;;;;;5023479;28;20046;-59
2021/09/08 10:35:18;;;;;;;17.23;9.63;;;23.70;68.40;;;;;;5004699;28;20117;-59
2021/09/08 10:37:48;;;;;;;19.05;10.23;;;23.80;66.50;;;;;;5005656;28;20510;-59
2021/09/08 10:40:18;;;;;;;16.02;10.70;;;23.80;67.30;;;;;;5024239;28;20050;-59
2021/09/08 10:42:46;;;;;;;18.17;10.35;;;23.90;67.70;;;;;;5023631;28;20528;-59
2021/09/08 10:45:58;;;;;;;14.68;10.70;;;23.90;66.80;;;;;;4998501;28;20066;-59
2021/09/08 10:48:39;;;;;;;12.23;9.65;;;24.00;66.80;;;;;;5006041;28;20129;-58
2021/09/08 10:51:07;;;;;;;15.00;9.60;;;24.00;67.00;;;;;;4993677;28;20086;-60
2021/09/08 10:53:34;;;;;;;12.43;9.68;;;24.10;66.10;;;;;;5005211;28;20035;-59
2021/09/08 10:56:01;;;;;;;13.73;9.80;;;24.10;67.70;;;;;;4992768;28;20046;-58
2021/09/08 10:58:59;;;;;;;13.77;10.32;;;24.20;65.50;;;;;;5000391;28;20048;-59
2021/09/08 11:01:25;;;;;;;13.57;9.23;;;24.20;64.90;;;;;;5016557;28;20054;-58
2021/09/08 11:03:51;;;;;;;18.23;10.07;;;24.20;65.60;;;;;;5003706;28;20037;-59
2021/09/08 11:06:17;;;;;;;14.70;8.50;;;24.20;65.50;;;;;;5006348;28;20049;-59
2021/09/08 11:08:44;;;;;;;11.60;9.10;;;24.30;64.20;;;;;;4996061;28;20067;-59
2021/09/08 11:11:19;;;;;;;16.95;10.50;;;24.40;64.90;;;;;;5002695;28;20056;-59
2021/09/08 11:13:54;;;;;;;12.48;9.35;;;24.50;66.10;;;;;;5011546;28;20042;-59
2021/09/08 11:16:25;;;;;;;11.90;8.90;;;24.60;65.20;;;;;;5000767;28;20116;-59
2021/09/08 11:18:52;;;;;;;12.50;9.07;;;24.60;63.20;;;;;;5008206;28;20499;-59
2021/09/08 11:21:21;;;;;;;12.25;8.77;;;24.60;61.70;;;;;;5010301;28;20038;-59
2021/09/08 11:23:49;;;;;;;13.00;8.57;;;24.60;62.60;;;;;;5012877;28;20046;-59
2021/09/08 11:26:15;;;;;;;14.45;9.18;;;24.60;63.30;;;;;;5020267;28;20042;-59
2021/09/08 11:28:41;;;;;;;10.85;8.38;;;24.70;62.40;;;;;;5004084;28;20504;-59
2021/09/08 11:31:18;;;;;;;12.13;8.55;;;24.80;63.30;;;;;;4998046;28;20042;-59
2021/09/08 11:33:44;;;;;;;11.52;7.90;;;24.80;62.70;;;;;;5019160;28;20042;-59
2021/09/08 11:36:18;;;;;;;10.43;7.38;;;24.90;63.00;;;;;;5002051;28;20105;-59
2021/09/08 11:38:50;;;;;;;12.10;7.47;;;25.00;60.50;;;;;;5019004;28;20041;-59
2021/09/08 11:41:17;;;;;;;10.60;7.50;;;25.10;59.90;;;;;;5012825;28;20406;-59
2021/09/08 11:43:49;;;;;;;12.13;7.60;;;25.00;61.00;;;;;;5010112;28;20049;-58
2021/09/08 11:46:20;;;;;;;11.07;7.72;;;25.20;60.00;;;;;;5007648;28;20550;-59
2021/09/08 11:48:48;;;;;;;11.30;7.47;;;25.20;59.80;;;;;;5023178;28;20038;-59
2021/09/08 11:51:16;;;;;;;11.30;7.38;;;25.20;60.30;;;;;;5007477;28;20046;-59
2021/09/08 11:53:42;;;;;;;10.25;7.32;;;25.30;58.50;;;;;;5003963;28;20046;-59
2021/09/08 11:56:17;;;;;;;10.38;7.13;;;25.30;58.80;;;;;;5014866;28;20171;-59
2021/09/08 11:58:48;;;;;;;8.82;6.85;;;25.30;58.30;;;;;;5014045;28;20056;-59
2021/09/08 12:01:13;;;;;;;10.35;6.00;;;25.40;57.40;;;;;;5018428;28;20045;-60
2021/09/08 12:03:42;;;;;;;10.18;6.65;;;25.50;57.40;;;;;;4995910;28;20034;-59
2021/09/08 12:06:19;;;;;;;12.30;6.88;;;25.50;56.20;;;;;;5009337;28;20038;-59
2021/09/08 12:08:50;;;;;;;10.77;6.70;;;25.60;56.90;;;;;;5006224;28;20175;-59
2021/09/08 12:11:37;;;;;;;21.25;7.45;;;25.60;56.30;;;;;;4993651;28;20495;-59
2021/09/08 12:14:34;;;;;;;8.38;6.88;;;25.60;57.10;;;;;;5008028;28;20053;-59
2021/09/08 12:17:03;;;;;;;9.68;6.40;;;25.60;56.20;;;;;;5006232;28;20073;-59
2021/09/08 12:19:34;;;;;;;10.73;6.88;;;25.60;54.80;;;;;;4997650;28;20042;-59
2021/09/08 12:22:09;;;;;;;8.43;7.15;;;25.70;55.40;;;;;;4995663;28;20046;-58
2021/09/08 12:24:41;;;;;;;8.40;6.45;;;25.70;55.00;;;;;;5005025;28;20092;-59
2021/09/08 12:27:31;;;;;;;12.13;6.95;;;25.80;56.30;;;;;;4992664;28;20030;-59